sensor_id;sensor_type;location;lat;lon;timestamp;pressure;altitude;pressure_sealevel;temperature;humidity
4199;BME280;2113;50.946;14.610;2023-01-06T00:02:16;97525.69;;;9.30;61.52
4199;BME280;2113;50.946;14.610;2023-01-06T00:04:44;97539.88;;;9.15;61.68
4199;BME280;2113;50.946;14.610;2023-01-06T00:07:12;97542.53;;;9.13;61.81
4199;BME280;2113;50.946;14.610;2023-01-06T00:09:41;97544.78;;;9.29;61.37
4199;BME280;2113;50.946;14.610;2023-01-06T00:12:09;97536.88;;;9.32;61.42
4199;BME280;2113;50.946;14.610;2023-01-06T00:14:38;97537.06;;;9.24;61.74
4199;BME280;2113;50.946;14.610;2023-01-06T00:17:09;97530.97;;;9.27;61.28
4199;BME280;2113;50.946;14.610;2023-01-06T00:19:37;97539.78;;;9.19;61.69
4199;BME280;2113;50.946;14.610;2023-01-06T00:22:06;97541.38;;;8.88;62.21
4199;BME280;2113;50.946;14.610;2023-01-06T00:24:34;97540.63;;;8.82;63.09
4199;BME280;2113;50.946;14.610;2023-01-06T00:27:03;97545.06;;;8.77;62.67
4199;BME280;2113;50.946;14.610;2023-01-06T00:29:31;97552.72;;;8.82;62.67
4199;BME280;2113;50.946;14.610;2023-01-06T00:32:01;97542.22;;;8.88;62.57
4199;BME280;2113;50.946;14.610;2023-01-06T00:34:30;97542.22;;;8.48;63.96
4199;BME280;2113;50.946;14.610;2023-01-06T00:36:59;97535.09;;;8.59;63.92
4199;BME280;2113;50.946;14.610;2023-01-06T00:39:27;97537.38;;;8.73;63.50
4199;BME280;2113;50.946;14.610;2023-01-06T00:41:55;97527.59;;;8.86;63.55
4199;BME280;2113;50.946;14.610;2023-01-06T00:44:35;97528.06;;;8.64;63.62
4199;BME280;2113;50.946;14.610;2023-01-06T00:47:06;97531.47;;;9.05;63.31
4199;BME280;2113;50.946;14.610;2023-01-06T00:49:36;97528.91;;;9.04;62.89
4199;BME280;2113;50.946;14.610;2023-01-06T00:52:05;97523.69;;;9.05;62.62
4199;BME280;2113;50.946;14.610;2023-01-06T00:54:34;97525.31;;;9.09;62.50
4199;BME280;2113;50.946;14.610;2023-01-06T00:57:05;97532.72;;;8.89;63.37
4199;BME280;2113;50.946;14.610;2023-01-06T00:59:34;97539.28;;;8.65;64.17
4199;BME280;2113;50.946;14.610;2023-01-06T01:02:02;97546.09;;;8.69;64.32
4199;BME280;2113;50.946;14.610;2023-01-06T01:04:34;97536.03;;;8.94;63.45
4199;BME280;2113;50.946;14.610;2023-01-06T01:07:02;97539.22;;;9.07;63.21
4199;BME280;2113;50.946;14.610;2023-01-06T01:09:31;97538.81;;;8.86;63.94
4199;BME280;2113;50.946;14.610;2023-01-06T01:12:00;97533.41;;;8.95;63.48
4199;BME280;2113;50.946;14.610;2023-01-06T01:14:41;97538.28;;;9.09;63.27
4199;BME280;2113;50.946;14.610;2023-01-06T01:17:10;97540.81;;;9.12;62.88
4199;BME280;2113;50.946;14.610;2023-01-06T01:19:40;97544.47;;;9.04;62.94
4199;BME280;2113;50.946;14.610;2023-01-06T01:22:09;97540.81;;;9.12;63.18
4199;BME280;2113;50.946;14.610;2023-01-06T01:24:37;97542.22;;;9.26;62.78
4199;BME280;2113;50.946;14.610;2023-01-06T01:27:06;97541.19;;;9.34;62.58
4199;BME280;2113;50.946;14.610;2023-01-06T01:29:34;97544.84;;;9.24;62.50
4199;BME280;2113;50.946;14.610;2023-01-06T01:32:03;97533.56;;;9.27;62.80
4199;BME280;2113;50.946;14.610;2023-01-06T01:34:31;97542.88;;;9.35;62.29
4199;BME280;2113;50.946;14.610;2023-01-06T01:37:02;97539.44;;;9.35;62.39
4199;BME280;2113;50.946;14.610;2023-01-06T01:39:31;97547.13;;;9.38;62.19
4199;BME280;2113;50.946;14.610;2023-01-06T01:41:59;97549.09;;;9.28;62.55
4199;BME280;2113;50.946;14.610;2023-01-06T01:44:57;97557.75;;;9.29;62.69
4199;BME280;2113;50.946;14.610;2023-01-06T01:47:31;97555.03;;;9.33;62.39
4199;BME280;2113;50.946;14.610;2023-01-06T01:50:04;97550.53;;;9.40;62.56
4199;BME280;2113;50.946;14.610;2023-01-06T01:52:35;97547.81;;;9.46;62.13
4199;BME280;2113;50.946;14.610;2023-01-06T01:55:05;97552.97;;;9.48;61.99
4199;BME280;2113;50.946;14.610;2023-01-06T01:57:38;97542.59;;;9.48;62.25
4199;BME280;2113;50.946;14.610;2023-01-06T02:00:08;97540.16;;;9.40;62.30
4199;BME280;2113;50.946;14.610;2023-01-06T02:02:41;97533.31;;;9.36;62.47
4199;BME280;2113;50.946;14.610;2023-01-06T02:05:13;97534.38;;;9.29;62.42
4199;BME280;2113;50.946;14.610;2023-01-06T02:07:45;97534.50;;;9.23;62.59
4199;BME280;2113;50.946;14.610;2023-01-06T02:10:17;97533.69;;;9.20;63.00
4199;BME280;2113;50.946;14.610;2023-01-06T02:12:47;97523.09;;;9.30;62.65
4199;BME280;2113;50.946;14.610;2023-01-06T02:15:20;97524.66;;;9.37;62.40
4199;BME280;2113;50.946;14.610;2023-01-06T02:18:00;97515.31;;;9.30;62.65
4199;BME280;2113;50.946;14.610;2023-01-06T02:21:00;97512.31;;;9.11;63.00
4199;BME280;2113;50.946;14.610;2023-01-06T02:27:06;97507.75;;;9.20;62.98
4199;BME280;2113;50.946;14.610;2023-01-06T02:32:56;97504.72;;;9.03;62.99
4199;BME280;2113;50.946;14.610;2023-01-06T02:35:49;97494.69;;;8.88;63.60
4199;BME280;2113;50.946;14.610;2023-01-06T02:38:31;97499.94;;;8.85;64.36
4199;BME280;2113;50.946;14.610;2023-01-06T02:41:10;97502.31;;;8.95;63.55
4199;BME280;2113;50.946;14.610;2023-01-06T02:43:50;97499.09;;;9.21;63.09
4199;BME280;2113;50.946;14.610;2023-01-06T02:46:29;97499.84;;;9.27;62.85
4199;BME280;2113;50.946;14.610;2023-01-06T02:49:10;97493.94;;;9.20;62.93
4199;BME280;2113;50.946;14.610;2023-01-06T02:51:47;97487.75;;;9.26;62.69
4199;BME280;2113;50.946;14.610;2023-01-06T02:54:27;97481.75;;;9.24;62.93
4199;BME280;2113;50.946;14.610;2023-01-06T02:57:04;97485.28;;;9.21;62.52
4199;BME280;2113;50.946;14.610;2023-01-06T02:59:37;97476.16;;;9.05;62.97
4199;BME280;2113;50.946;14.610;2023-01-06T03:02:10;97475.63;;;8.90;62.68
4199;BME280;2113;50.946;14.610;2023-01-06T03:04:43;97479.97;;;8.90;63.07
4199;BME280;2113;50.946;14.610;2023-01-06T03:07:14;97474.25;;;8.75;63.02
4199;BME280;2113;50.946;14.610;2023-01-06T03:09:46;97476.91;;;8.72;63.26
4199;BME280;2113;50.946;14.610;2023-01-06T03:12:19;97481.38;;;8.66;63.30
4199;BME280;2113;50.946;14.610;2023-01-06T03:14:52;97474.63;;;8.58;62.99
4199;BME280;2113;50.946;14.610;2023-01-06T03:17:23;97476.38;;;8.58;63.18
4199;BME280;2113;50.946;14.610;2023-01-06T03:19:53;97474.81;;;8.51;62.76
4199;BME280;2113;50.946;14.610;2023-01-06T03:22:22;97468.06;;;8.40;63.30
4199;BME280;2113;50.946;14.610;2023-01-06T03:24:51;97468.66;;;8.13;63.82
4199;BME280;2113;50.946;14.610;2023-01-06T03:27:25;97470.97;;;7.83;65.39
4199;BME280;2113;50.946;14.610;2023-01-06T03:29:55;97470.94;;;7.84;65.36
4199;BME280;2113;50.946;14.610;2023-01-06T03:32:27;97471.00;;;7.81;65.96
4199;BME280;2113;50.946;14.610;2023-01-06T03:35:16;97464.44;;;7.63;66.09
4199;BME280;2113;50.946;14.610;2023-01-06T03:37:51;97460.84;;;7.71;66.19
4199;BME280;2113;50.946;14.610;2023-01-06T03:40:28;97463.63;;;8.05;65.97
4199;BME280;2113;50.946;14.610;2023-01-06T03:43:08;97473.59;;;7.81;66.57
4199;BME280;2113;50.946;14.610;2023-01-06T03:45:49;97464.72;;;8.35;64.82
4199;BME280;2113;50.946;14.610;2023-01-06T03:48:33;97459.41;;;8.45;64.38
4199;BME280;2113;50.946;14.610;2023-01-06T03:51:17;97459.13;;;8.55;64.10
4199;BME280;2113;50.946;14.610;2023-01-06T03:53:49;97447.81;;;8.19;64.45
4199;BME280;2113;50.946;14.610;2023-01-06T03:56:24;97459.44;;;7.99;64.83
4199;BME280;2113;50.946;14.610;2023-01-06T03:58:58;97452.06;;;8.21;64.24
4199;BME280;2113;50.946;14.610;2023-01-06T04:01:29;97453.28;;;8.05;64.18
4199;BME280;2113;50.946;14.610;2023-01-06T04:03:58;97451.06;;;8.27;64.02
4199;BME280;2113;50.946;14.610;2023-01-06T04:06:31;97442.94;;;8.03;63.69
4199;BME280;2113;50.946;14.610;2023-01-06T04:09:02;97439.53;;;8.01;64.32
4199;BME280;2113;50.946;14.610;2023-01-06T04:11:34;97434.31;;;8.04;64.10
4199;BME280;2113;50.946;14.610;2023-01-06T04:14:20;97430.03;;;8.02;64.16
4199;BME280;2113;50.946;14.610;2023-01-06T04:16:49;97435.81;;;8.15;63.64
4199;BME280;2113;50.946;14.610;2023-01-06T04:19:18;97419.59;;;8.07;63.36
4199;BME280;2113;50.946;14.610;2023-01-06T04:21:48;97426.41;;;8.09;63.66
4199;BME280;2113;50.946;14.610;2023-01-06T04:24:17;97420.16;;;8.19;63.35
4199;BME280;2113;50.946;14.610;2023-01-06T04:26:45;97427.47;;;8.00;63.59
4199;BME280;2113;50.946;14.610;2023-01-06T04:29:14;97418.44;;;8.20;63.12
4199;BME280;2113;50.946;14.610;2023-01-06T04:31:43;97420.13;;;8.21;63.46
4199;BME280;2113;50.946;14.610;2023-01-06T04:34:12;97415.78;;;8.21;63.14
4199;BME280;2113;50.946;14.610;2023-01-06T04:36:41;97426.22;;;8.18;63.52
4199;BME280;2113;50.946;14.610;2023-01-06T04:39:11;97414.81;;;8.27;63.25
4199;BME280;2113;50.946;14.610;2023-01-06T04:41:39;97427.81;;;8.26;63.82
4199;BME280;2113;50.946;14.610;2023-01-06T04:44:07;97420.88;;;8.26;63.17
4199;BME280;2113;50.946;14.610;2023-01-06T04:46:36;97421.72;;;8.28;63.05
4199;BME280;2113;50.946;14.610;2023-01-06T04:49:05;97413.31;;;8.17;63.55
4199;BME280;2113;50.946;14.610;2023-01-06T04:51:33;97403.41;;;8.36;63.78
4199;BME280;2113;50.946;14.610;2023-01-06T04:54:01;97413.25;;;8.20;63.82
4199;BME280;2113;50.946;14.610;2023-01-06T04:56:31;97407.78;;;8.32;63.78
4199;BME280;2113;50.946;14.610;2023-01-06T04:58:59;97405.97;;;8.37;63.86
4199;BME280;2113;50.946;14.610;2023-01-06T05:01:28;97404.78;;;8.52;63.27
4199;BME280;2113;50.946;14.610;2023-01-06T05:03:56;97401.16;;;8.59;63.19
4199;BME280;2113;50.946;14.610;2023-01-06T05:06:25;97409.25;;;8.46;63.37
4199;BME280;2113;50.946;14.610;2023-01-06T05:08:53;97417.00;;;8.47;62.62
4199;BME280;2113;50.946;14.610;2023-01-06T05:11:24;97406.53;;;8.50;62.86
4199;BME280;2113;50.946;14.610;2023-01-06T05:13:53;97405.06;;;8.38;63.57
4199;BME280;2113;50.946;14.610;2023-01-06T05:16:23;97400.66;;;8.43;63.03
4199;BME280;2113;50.946;14.610;2023-01-06T05:18:53;97406.00;;;8.36;63.54
4199;BME280;2113;50.946;14.610;2023-01-06T05:21:22;97404.72;;;8.15;64.21
4199;BME280;2113;50.946;14.610;2023-01-06T05:23:52;97403.69;;;8.23;63.92
4199;BME280;2113;50.946;14.610;2023-01-06T05:26:23;97403.38;;;8.37;63.10
4199;BME280;2113;50.946;14.610;2023-01-06T05:28:54;97406.22;;;8.25;63.71
4199;BME280;2113;50.946;14.610;2023-01-06T05:31:22;97398.94;;;8.42;64.51
4199;BME280;2113;50.946;14.610;2023-01-06T05:33:51;97399.25;;;8.68;63.23
4199;BME280;2113;50.946;14.610;2023-01-06T05:36:19;97388.09;;;8.64;63.35
4199;BME280;2113;50.946;14.610;2023-01-06T05:38:50;97395.56;;;8.76;62.92
4199;BME280;2113;50.946;14.610;2023-01-06T05:41:19;97392.91;;;8.79;62.72
4199;BME280;2113;50.946;14.610;2023-01-06T05:43:47;97398.63;;;8.58;62.87
4199;BME280;2113;50.946;14.610;2023-01-06T05:46:17;97396.84;;;8.60;63.27
4199;BME280;2113;50.946;14.610;2023-01-06T05:48:45;97397.63;;;8.23;64.56
4199;BME280;2113;50.946;14.610;2023-01-06T05:51:15;97400.47;;;8.12;65.30
4199;BME280;2113;50.946;14.610;2023-01-06T05:53:45;97402.53;;;7.95;65.85
4199;BME280;2113;50.946;14.610;2023-01-06T05:56:15;97403.28;;;8.42;65.15
4199;BME280;2113;50.946;14.610;2023-01-06T05:58:44;97392.78;;;8.48;64.45
4199;BME280;2113;50.946;14.610;2023-01-06T06:01:15;97405.78;;;8.47;64.98
4199;BME280;2113;50.946;14.610;2023-01-06T06:03:45;97405.13;;;8.37;64.57
4199;BME280;2113;50.946;14.610;2023-01-06T06:06:14;97406.91;;;8.72;64.72
4199;BME280;2113;50.946;14.610;2023-01-06T06:08:43;97400.09;;;8.68;64.50
4199;BME280;2113;50.946;14.610;2023-01-06T06:11:13;97395.81;;;8.28;65.55
4199;BME280;2113;50.946;14.610;2023-01-06T06:13:44;97390.97;;;8.13;66.01
4199;BME280;2113;50.946;14.610;2023-01-06T06:16:15;97394.06;;;8.27;65.44
4199;BME280;2113;50.946;14.610;2023-01-06T06:18:48;97393.56;;;8.52;65.02
4199;BME280;2113;50.946;14.610;2023-01-06T06:21:18;97392.13;;;8.76;64.43
4199;BME280;2113;50.946;14.610;2023-01-06T06:23:48;97395.50;;;8.40;65.09
4199;BME280;2113;50.946;14.610;2023-01-06T06:26:16;97384.59;;;8.28;66.04
4199;BME280;2113;50.946;14.610;2023-01-06T06:28:44;97380.34;;;8.62;64.47
4199;BME280;2113;50.946;14.610;2023-01-06T06:31:15;97376.22;;;8.16;66.03
4199;BME280;2113;50.946;14.610;2023-01-06T06:33:47;97368.59;;;8.09;67.04
4199;BME280;2113;50.946;14.610;2023-01-06T06:36:16;97371.66;;;8.26;66.53
4199;BME280;2113;50.946;14.610;2023-01-06T06:38:46;97373.69;;;8.12;67.54
4199;BME280;2113;50.946;14.610;2023-01-06T06:41:15;97370.03;;;8.22;67.12
4199;BME280;2113;50.946;14.610;2023-01-06T06:43:44;97367.66;;;8.13;67.08
4199;BME280;2113;50.946;14.610;2023-01-06T06:46:12;97364.28;;;8.09;67.13
4199;BME280;2113;50.946;14.610;2023-01-06T06:48:40;97360.03;;;8.46;66.22
4199;BME280;2113;50.946;14.610;2023-01-06T06:51:11;97361.44;;;8.20;66.77
4199;BME280;2113;50.946;14.610;2023-01-06T06:53:43;97371.44;;;7.96;67.52
4199;BME280;2113;50.946;14.610;2023-01-06T06:56:13;97364.38;;;8.04;67.41
4199;BME280;2113;50.946;14.610;2023-01-06T06:58:42;97357.97;;;8.21;66.50
4199;BME280;2113;50.946;14.610;2023-01-06T07:01:12;97351.38;;;8.06;67.11
4199;BME280;2113;50.946;14.610;2023-01-06T07:03:41;97356.88;;;7.92;67.72
4199;BME280;2113;50.946;14.610;2023-01-06T07:06:14;97352.44;;;8.36;66.85
4199;BME280;2113;50.946;14.610;2023-01-06T07:08:45;97363.00;;;8.27;67.18
4199;BME280;2113;50.946;14.610;2023-01-06T07:11:14;97363.44;;;8.48;67.07
4199;BME280;2113;50.946;14.610;2023-01-06T07:13:42;97356.03;;;8.68;66.02
4199;BME280;2113;50.946;14.610;2023-01-06T07:16:11;97358.69;;;8.65;66.09
4199;BME280;2113;50.946;14.610;2023-01-06T07:18:40;97368.69;;;8.45;66.38
4199;BME280;2113;50.946;14.610;2023-01-06T07:21:09;97363.41;;;8.49;67.03
4199;BME280;2113;50.946;14.610;2023-01-06T07:23:39;97364.84;;;8.23;67.86
4199;BME280;2113;50.946;14.610;2023-01-06T07:26:07;97360.78;;;8.51;66.70
4199;BME280;2113;50.946;14.610;2023-01-06T07:28:36;97356.97;;;8.27;68.35
4199;BME280;2113;50.946;14.610;2023-01-06T07:31:04;97358.56;;;8.71;66.30
4199;BME280;2113;50.946;14.610;2023-01-06T07:33:33;97373.16;;;8.36;67.47
4199;BME280;2113;50.946;14.610;2023-01-06T07:36:02;97372.72;;;8.56;66.92
4199;BME280;2113;50.946;14.610;2023-01-06T07:38:30;97359.31;;;8.75;66.29
4199;BME280;2113;50.946;14.610;2023-01-06T07:41:01;97376.00;;;8.63;66.82
4199;BME280;2113;50.946;14.610;2023-01-06T07:43:29;97370.06;;;8.94;67.00
4199;BME280;2113;50.946;14.610;2023-01-06T07:45:58;97368.69;;;8.80;67.17
4199;BME280;2113;50.946;14.610;2023-01-06T07:48:26;97364.84;;;8.61;67.03
4199;BME280;2113;50.946;14.610;2023-01-06T07:50:56;97367.47;;;8.20;68.38
4199;BME280;2113;50.946;14.610;2023-01-06T07:53:24;97359.78;;;8.91;66.84
4199;BME280;2113;50.946;14.610;2023-01-06T07:55:53;97355.31;;;8.24;68.43
4199;BME280;2113;50.946;14.610;2023-01-06T07:58:24;97350.94;;;8.63;67.69
4199;BME280;2113;50.946;14.610;2023-01-06T08:00:52;97354.44;;;8.62;68.35
4199;BME280;2113;50.946;14.610;2023-01-06T08:03:21;97352.38;;;8.39;68.51
4199;BME280;2113;50.946;14.610;2023-01-06T08:05:50;97350.25;;;7.79;70.96
4199;BME280;2113;50.946;14.610;2023-01-06T08:08:18;97346.47;;;7.94;71.06
4199;BME280;2113;50.946;14.610;2023-01-06T08:10:47;97344.91;;;8.26;69.16
4199;BME280;2113;50.946;14.610;2023-01-06T08:13:15;97347.34;;;8.33;69.30
4199;BME280;2113;50.946;14.610;2023-01-06T08:15:47;97347.31;;;8.71;68.66
4199;BME280;2113;50.946;14.610;2023-01-06T08:18:17;97346.16;;;8.08;69.98
4199;BME280;2113;50.946;14.610;2023-01-06T08:20:46;97341.84;;;8.08;70.31
4199;BME280;2113;50.946;14.610;2023-01-06T08:23:14;97342.00;;;8.00;70.47
4199;BME280;2113;50.946;14.610;2023-01-06T08:25:43;97344.44;;;7.68;70.23
4199;BME280;2113;50.946;14.610;2023-01-06T08:28:11;97338.88;;;8.62;68.37
4199;BME280;2113;50.946;14.610;2023-01-06T08:30:41;97342.94;;;8.37;67.70
4199;BME280;2113;50.946;14.610;2023-01-06T08:33:11;97340.97;;;8.82;66.85
4199;BME280;2113;50.946;14.610;2023-01-06T08:35:41;97334.06;;;8.47;67.48
4199;BME280;2113;50.946;14.610;2023-01-06T08:38:12;97346.38;;;8.37;68.40
4199;BME280;2113;50.946;14.610;2023-01-06T08:40:41;97338.28;;;9.20;66.41
4199;BME280;2113;50.946;14.610;2023-01-06T08:43:09;97345.53;;;9.07;66.10
4199;BME280;2113;50.946;14.610;2023-01-06T08:45:38;97346.16;;;8.82;67.63
4199;BME280;2113;50.946;14.610;2023-01-06T08:48:07;97349.22;;;9.31;65.99
4199;BME280;2113;50.946;14.610;2023-01-06T08:50:38;97340.19;;;9.13;66.12
4199;BME280;2113;50.946;14.610;2023-01-06T08:53:06;97347.25;;;9.08;66.64
4199;BME280;2113;50.946;14.610;2023-01-06T08:55:37;97342.09;;;9.07;65.70
4199;BME280;2113;50.946;14.610;2023-01-06T08:58:08;97357.44;;;9.47;65.43
4199;BME280;2113;50.946;14.610;2023-01-06T09:00:39;97349.09;;;9.03;66.15
4199;BME280;2113;50.946;14.610;2023-01-06T09:03:08;97350.75;;;9.38;65.50
4199;BME280;2113;50.946;14.610;2023-01-06T09:05:39;97340.19;;;9.13;65.22
4199;BME280;2113;50.946;14.610;2023-01-06T09:08:07;97347.06;;;8.46;68.07
4199;BME280;2113;50.946;14.610;2023-01-06T09:10:36;97339.72;;;8.63;67.99
4199;BME280;2113;50.946;14.610;2023-01-06T09:13:05;97336.28;;;8.25;67.95
4199;BME280;2113;50.946;14.610;2023-01-06T09:15:34;97333.50;;;8.70;68.08
4199;BME280;2113;50.946;14.610;2023-01-06T09:18:06;97333.13;;;9.18;66.18
4199;BME280;2113;50.946;14.610;2023-01-06T09:20:36;97347.75;;;8.88;66.91
4199;BME280;2113;50.946;14.610;2023-01-06T09:23:06;97347.47;;;9.32;66.54
4199;BME280;2113;50.946;14.610;2023-01-06T09:25:35;97346.00;;;9.23;65.96
4199;BME280;2113;50.946;14.610;2023-01-06T09:28:04;97353.19;;;9.74;65.81
4199;BME280;2113;50.946;14.610;2023-01-06T09:30:32;97356.16;;;9.62;65.73
4199;BME280;2113;50.946;14.610;2023-01-06T09:33:01;97361.84;;;9.75;65.08
4199;BME280;2113;50.946;14.610;2023-01-06T09:35:29;97358.69;;;9.65;66.04
4199;BME280;2113;50.946;14.610;2023-01-06T09:37:58;97363.19;;;9.58;65.85
4199;BME280;2113;50.946;14.610;2023-01-06T09:40:31;97353.81;;;9.21;66.96
4199;BME280;2113;50.946;14.610;2023-01-06T09:43:13;97349.75;;;10.04;66.57
4199;BME280;2113;50.946;14.610;2023-01-06T09:45:49;97329.41;;;10.46;65.02
4199;BME280;2113;50.946;14.610;2023-01-06T09:48:24;97343.44;;;10.69;64.46
4199;BME280;2113;50.946;14.610;2023-01-06T09:50:58;97346.25;;;11.14;63.29
4199;BME280;2113;50.946;14.610;2023-01-06T09:53:31;97346.53;;;10.80;63.44
4199;BME280;2113;50.946;14.610;2023-01-06T09:56:05;97329.16;;;10.54;64.58
4199;BME280;2113;50.946;14.610;2023-01-06T09:58:38;97329.94;;;9.71;67.61
4199;BME280;2113;50.946;14.610;2023-01-06T10:01:11;97323.50;;;9.85;67.69
4199;BME280;2113;50.946;14.610;2023-01-06T10:43:15;97279.19;;;10.46;67.07
4199;BME280;2113;50.946;14.610;2023-01-06T10:45:48;97286.56;;;10.03;68.28
4199;BME280;2113;50.946;14.610;2023-01-06T10:48:26;97277.81;;;10.06;68.46
4199;BME280;2113;50.946;14.610;2023-01-06T10:50:56;97268.03;;;9.86;69.50
4199;BME280;2113;50.946;14.610;2023-01-06T10:53:24;97262.38;;;10.01;69.63
4199;BME280;2113;50.946;14.610;2023-01-06T10:55:55;97236.97;;;10.11;69.16
4199;BME280;2113;50.946;14.610;2023-01-06T10:58:32;97238.34;;;9.94;69.45
4199;BME280;2113;50.946;14.610;2023-01-06T11:01:07;97232.31;;;9.94;68.98
4199;BME280;2113;50.946;14.610;2023-01-06T11:03:36;97225.47;;;10.45;68.39
4199;BME280;2113;50.946;14.610;2023-01-06T11:06:14;97228.97;;;10.17;67.93
4199;BME280;2113;50.946;14.610;2023-01-06T11:08:44;97231.78;;;10.11;68.49
4199;BME280;2113;50.946;14.610;2023-01-06T11:11:14;97230.50;;;9.96;68.47
4199;BME280;2113;50.946;14.610;2023-01-06T11:13:57;97231.38;;;10.23;68.64
4199;BME280;2113;50.946;14.610;2023-01-06T11:16:28;97227.50;;;10.08;68.48
4199;BME280;2113;50.946;14.610;2023-01-06T11:18:59;97228.81;;;10.22;69.23
4199;BME280;2113;50.946;14.610;2023-01-06T11:21:38;97229.56;;;10.25;67.89
4199;BME280;2113;50.946;14.610;2023-01-06T11:24:15;97224.13;;;10.06;68.92
4199;BME280;2113;50.946;14.610;2023-01-06T11:26:49;97216.50;;;10.55;67.90
4199;BME280;2113;50.946;14.610;2023-01-06T11:29:25;97213.13;;;10.51;67.97
4199;BME280;2113;50.946;14.610;2023-01-06T11:31:55;97206.88;;;10.32;68.15
4199;BME280;2113;50.946;14.610;2023-01-06T11:34:24;97211.38;;;9.98;69.37
4199;BME280;2113;50.946;14.610;2023-01-06T11:36:56;97204.81;;;10.42;68.51
4199;BME280;2113;50.946;14.610;2023-01-06T11:39:28;97215.00;;;10.48;68.36
4199;BME280;2113;50.946;14.610;2023-01-06T11:42:08;97216.47;;;10.80;66.87
4199;BME280;2113;50.946;14.610;2023-01-06T11:44:40;97204.94;;;10.62;67.12
4199;BME280;2113;50.946;14.610;2023-01-06T11:47:13;97197.16;;;10.87;67.32
4199;BME280;2113;50.946;14.610;2023-01-06T11:49:47;97191.91;;;10.64;67.41
4199;BME280;2113;50.946;14.610;2023-01-06T11:52:20;97188.81;;;10.52;67.98
4199;BME280;2113;50.946;14.610;2023-01-06T11:54:56;97190.38;;;10.58;67.36
4199;BME280;2113;50.946;14.610;2023-01-06T11:57:34;97184.00;;;10.67;67.74
4199;BME280;2113;50.946;14.610;2023-01-06T12:03:13;97179.56;;;11.17;66.10
4199;BME280;2113;50.946;14.610;2023-01-06T12:05:47;97180.06;;;10.80;67.39
4199;BME280;2113;50.946;14.610;2023-01-06T12:08:20;97189.75;;;11.00;66.87
4199;BME280;2113;50.946;14.610;2023-01-06T12:10:54;97182.31;;;10.66;67.92
4199;BME280;2113;50.946;14.610;2023-01-06T12:13:24;97178.31;;;11.04;66.93
4199;BME280;2113;50.946;14.610;2023-01-06T12:15:58;97170.84;;;10.71;68.06
4199;BME280;2113;50.946;14.610;2023-01-06T12:18:32;97175.97;;;11.22;66.65
4199;BME280;2113;50.946;14.610;2023-01-06T12:21:02;97176.22;;;10.42;68.84
4199;BME280;2113;50.946;14.610;2023-01-06T12:23:33;97173.97;;;10.29;69.62
4199;BME280;2113;50.946;14.610;2023-01-06T12:26:08;97176.03;;;10.46;69.20
4199;BME280;2113;50.946;14.610;2023-01-06T12:28:42;97175.25;;;10.44;69.32
4199;BME280;2113;50.946;14.610;2023-01-06T12:31:15;97174.28;;;10.20;69.87
4199;BME280;2113;50.946;14.610;2023-01-06T12:33:50;97163.75;;;10.51;69.66
4199;BME280;2113;50.946;14.610;2023-01-06T12:36:26;97162.00;;;10.75;68.72
4199;BME280;2113;50.946;14.610;2023-01-06T12:39:00;97167.13;;;10.78;68.59
4199;BME280;2113;50.946;14.610;2023-01-06T12:41:36;97160.44;;;10.71;68.58
4199;BME280;2113;50.946;14.610;2023-01-06T12:44:14;97159.09;;;11.08;67.94
4199;BME280;2113;50.946;14.610;2023-01-06T12:46:50;97170.81;;;11.20;67.91
4199;BME280;2113;50.946;14.610;2023-01-06T12:49:31;97163.28;;;10.89;68.32
4199;BME280;2113;50.946;14.610;2023-01-06T12:52:08;97160.91;;;11.06;68.47
4199;BME280;2113;50.946;14.610;2023-01-06T12:54:39;97151.91;;;11.61;66.92
4199;BME280;2113;50.946;14.610;2023-01-06T12:57:15;97161.91;;;11.71;67.04
4199;BME280;2113;50.946;14.610;2023-01-06T12:59:57;97162.44;;;12.02;65.70
4199;BME280;2113;50.946;14.610;2023-01-06T13:02:42;97157.13;;;12.25;64.30
4199;BME280;2113;50.946;14.610;2023-01-06T13:05:32;97151.66;;;11.67;65.98
4199;BME280;2113;50.946;14.610;2023-01-06T13:08:20;97157.47;;;11.51;66.81
4199;BME280;2113;50.946;14.610;2023-01-06T13:11:00;97156.78;;;11.24;67.15
4199;BME280;2113;50.946;14.610;2023-01-06T13:13:44;97156.94;;;11.20;67.37
4199;BME280;2113;50.946;14.610;2023-01-06T13:16:20;97158.53;;;11.00;67.75
4199;BME280;2113;50.946;14.610;2023-01-06T13:19:01;97158.63;;;11.21;67.14
4199;BME280;2113;50.946;14.610;2023-01-06T13:21:36;97152.81;;;10.90;67.52
4199;BME280;2113;50.946;14.610;2023-01-06T13:24:20;97136.88;;;10.76;67.44
4199;BME280;2113;50.946;14.610;2023-01-06T13:30:00;97139.25;;;10.58;68.54
4199;BME280;2113;50.946;14.610;2023-01-06T13:32:48;97137.72;;;10.53;68.12
4199;BME280;2113;50.946;14.610;2023-01-06T13:35:30;97138.38;;;10.58;68.29
4199;BME280;2113;50.946;14.610;2023-01-06T13:38:16;97141.91;;;10.81;68.09
4199;BME280;2113;50.946;14.610;2023-01-06T13:40:51;97142.44;;;10.42;68.48
4199;BME280;2113;50.946;14.610;2023-01-06T13:43:23;97152.91;;;10.38;68.94
4199;BME280;2113;50.946;14.610;2023-01-06T13:45:55;97152.25;;;10.82;68.21
4199;BME280;2113;50.946;14.610;2023-01-06T13:48:27;97156.94;;;10.72;68.11
4199;BME280;2113;50.946;14.610;2023-01-06T13:50:57;97165.75;;;10.43;68.68
4199;BME280;2113;50.946;14.610;2023-01-06T13:53:35;97154.50;;;10.43;69.37
4199;BME280;2113;50.946;14.610;2023-01-06T13:56:23;97155.56;;;10.37;69.51
4199;BME280;2113;50.946;14.610;2023-01-06T13:59:20;97145.81;;;10.44;69.26
4199;BME280;2113;50.946;14.610;2023-01-06T14:01:50;97151.00;;;10.69;68.54
4199;BME280;2113;50.946;14.610;2023-01-06T14:04:43;97157.00;;;10.71;68.42
4199;BME280;2113;50.946;14.610;2023-01-06T14:07:13;97162.13;;;10.72;68.41
4199;BME280;2113;50.946;14.610;2023-01-06T14:09:56;97180.19;;;10.52;69.34
4199;BME280;2113;50.946;14.610;2023-01-06T14:12:24;97173.19;;;10.54;69.20
4199;BME280;2113;50.946;14.610;2023-01-06T14:14:54;97177.69;;;10.49;68.85
4199;BME280;2113;50.946;14.610;2023-01-06T14:17:37;97178.28;;;10.32;69.71
4199;BME280;2113;50.946;14.610;2023-01-06T14:20:20;97179.88;;;10.09;70.13
4199;BME280;2113;50.946;14.610;2023-01-06T14:22:57;97175.75;;;10.29;70.06
4199;BME280;2113;50.946;14.610;2023-01-06T14:25:28;97182.78;;;9.72;71.45
4199;BME280;2113;50.946;14.610;2023-01-06T14:28:22;97180.63;;;9.86;71.25
4199;BME280;2113;50.946;14.610;2023-01-06T14:34:16;97200.88;;;9.75;71.29
4199;BME280;2113;50.946;14.610;2023-01-06T14:36:48;97193.13;;;9.73;71.21
4199;BME280;2113;50.946;14.610;2023-01-06T14:39:21;97203.97;;;9.86;70.81
4199;BME280;2113;50.946;14.610;2023-01-06T14:41:59;97199.38;;;9.94;70.66
4199;BME280;2113;50.946;14.610;2023-01-06T14:44:37;97197.66;;;9.67;71.66